Time;durP1;ratioP1;P1;durP2;ratioP2;P2;SDS_P1;SDS_P2;PMS_P1;PMS_P2;Temp;Humidity;BMP_temperature;BMP_pressure;BME280_temperature;BME280_humidity;BME280_pressure;Samples;Min_cycle;Max_cycle;Signal;HPM_P1;HPM_P2
2022/11/08 00:01:48;;;;;;;11.17;3.40;;;;;;;11.55;100.00;100882.00;5235391;28;20093;-74
2022/11/08 00:04:20;;;;;;;7.93;2.53;;;;;;;11.62;100.00;100883.28;5233781;28;20116;-74
2022/11/08 00:15:21;;;;;;;8.20;2.60;;;;;;;11.50;100.00;100883.13;5235727;28;20404;-74
2022/11/08 00:17:53;;;;;;;8.90;2.67;;;;;;;11.42;100.00;100879.28;5234275;28;20033;-74
2022/11/08 00:20:24;;;;;;;8.87;2.17;;;;;;;11.41;100.00;100872.38;5235303;28;20491;-74
2022/11/08 00:22:55;;;;;;;11.23;2.47;;;;;;;11.40;100.00;100881.19;5233739;28;20083;-74
2022/11/08 00:25:27;;;;;;;15.00;3.27;;;;;;;11.39;100.00;100872.47;5232464;28;20537;-74
2022/11/08 00:27:58;;;;;;;8.70;2.73;;;;;;;11.43;100.00;100873.13;5234626;28;20033;-74
2022/11/08 00:30:29;;;;;;;12.13;3.50;;;;;;;11.26;100.00;100880.25;5266548;28;20040;-74
2022/11/08 00:33:01;;;;;;;8.37;2.40;;;;;;;11.27;100.00;100874.09;5235076;28;20038;-74
2022/11/08 00:35:32;;;;;;;9.20;2.43;;;;;;;11.23;100.00;100875.19;5234308;28;20470;-74
2022/11/08 00:38:03;;;;;;;9.63;2.27;;;;;;;11.24;100.00;100869.03;5234170;28;20087;-74
2022/11/08 00:40:35;;;;;;;12.00;3.03;;;;;;;11.26;100.00;100861.91;5232423;28;20630;-74
2022/11/08 00:43:06;;;;;;;6.93;2.40;;;;;;;11.16;100.00;100874.75;5234215;28;20124;-74
2022/11/08 00:45:38;;;;;;;9.63;2.27;;;;;;;11.06;100.00;100856.13;5234496;28;20041;-74
2022/11/08 00:48:09;;;;;;;10.27;2.03;;;;;;;11.11;100.00;100866.31;5234381;28;20036;-73
2022/11/08 00:50:41;;;;;;;11.53;2.53;;;;;;;11.09;100.00;100860.31;5234051;28;20121;-74
2022/11/08 00:53:12;;;;;;;11.10;2.90;;;;;;;11.17;100.00;100857.25;5232308;28;20044;-74
2022/11/08 00:55:43;;;;;;;7.33;2.13;;;;;;;11.06;100.00;100857.91;5232729;28;20472;-74
2022/11/08 00:58:14;;;;;;;14.27;3.40;;;;;;;11.05;100.00;100849.19;5265978;28;20033;-73
2022/11/08 01:00:46;;;;;;;9.93;2.87;;;;;;;11.09;100.00;100855.94;5233925;28;20500;-73
2022/11/08 01:03:17;;;;;;;17.37;3.43;;;;;;;11.08;100.00;100848.19;5234301;28;20041;-75
2022/11/08 01:05:51;;;;;;;10.77;2.90;;;;;;;11.11;100.00;100853.22;5232879;28;20460;-74
2022/11/08 01:08:23;;;;;;;11.75;2.95;;;;;;;10.99;100.00;100836.47;5234225;28;20575;-74
2022/11/08 01:10:54;;;;;;;7.87;2.60;;;;;;;11.02;100.00;100854.63;5232612;28;20060;-74
2022/11/08 01:13:26;;;;;;;12.87;2.67;;;;;;;11.03;100.00;100845.81;5233986;28;20028;-74
2022/11/08 01:15:57;;;;;;;9.30;2.60;;;;;;;10.94;100.00;100841.16;5233610;28;20026;-73
2022/11/08 01:18:28;;;;;;;14.13;2.83;;;;;;;10.99;100.00;100844.34;5234098;28;20063;-74
2022/11/08 01:21:01;;;;;;;9.80;2.10;;;;;;;11.03;100.00;100856.31;5234485;28;20693;-74
2022/11/08 01:23:33;;;;;;;14.97;2.30;;;;;;;10.80;100.00;100823.66;5237617;28;20576;-73
2022/11/08 01:26:10;;;;;;;9.57;2.60;;;;;;;10.98;100.00;100855.75;5232601;28;20022;-73
2022/11/08 01:28:42;;;;;;;10.43;2.93;;;;;;;10.97;100.00;100841.81;5233791;28;20026;-74
2022/11/08 01:31:16;;;;;;;10.77;2.67;;;;;;;10.88;100.00;100834.50;5233965;28;20044;-74
2022/11/08 01:33:48;;;;;;;9.07;3.20;;;;;;;10.85;100.00;100827.69;5232428;28;20037;-74
2022/11/08 01:36:22;;;;;;;14.83;3.87;;;;;;;10.87;100.00;100827.59;5233422;28;20029;-74
2022/11/08 01:38:54;;;;;;;11.50;3.20;;;;;;;10.88;100.00;100837.97;5231883;28;20061;-74
2022/11/08 01:41:26;;;;;;;9.07;3.00;;;;;;;10.75;100.00;100816.09;5233004;28;20033;-74
2022/11/08 01:43:58;;;;;;;9.80;3.20;;;;;;;10.76;100.00;100829.09;5231420;28;20036;-74
2022/11/08 01:46:39;;;;;;;8.53;2.70;;;;;;;10.73;100.00;100816.19;5233852;28;20021;-74
2022/11/08 01:49:19;;;;;;;13.03;3.27;;;;;;;10.81;100.00;100807.84;5231730;28;20035;-74
2022/11/08 01:51:53;;;;;;;10.07;2.83;;;;;;;10.75;100.00;100800.38;5231861;28;20030;-74
2022/11/08 01:54:43;;;;;;;10.55;2.78;;;;;;;10.86;100.00;100794.47;5233568;28;20080;-74
2022/11/08 01:57:19;;;;;;;8.10;2.17;;;;;;;10.74;100.00;100798.69;5210996;28;20404;-74
2022/11/08 01:59:54;;;;;;;6.40;2.00;;;;;;;10.78;100.00;100792.34;5211042;28;20037;-74
2022/11/08 02:02:26;;;;;;;13.13;4.00;;;;;;;10.78;100.00;100792.34;5212917;28;20038;-74
2022/11/08 02:04:57;;;;;;;9.00;2.63;;;;;;;10.76;100.00;100791.56;5214953;28;20026;-74
2022/11/08 02:07:31;;;;;;;8.63;2.80;;;;;;;10.79;100.00;100782.69;5233646;28;20029;-74
2022/11/08 02:10:02;;;;;;;12.45;2.63;;;;;;;10.79;100.00;100780.91;5231804;28;20033;-73
2022/11/08 02:12:34;;;;;;;8.17;2.50;;;;;;;10.75;100.00;100769.78;5233170;28;20022;-73
2022/11/08 02:15:06;;;;;;;11.07;2.80;;;;;;;10.64;100.00;100773.06;5232836;28;20018;-73
2022/11/08 02:17:37;;;;;;;13.00;3.03;;;;;;;10.60;100.00;100768.94;5231729;28;20098;-76
2022/11/08 02:20:09;;;;;;;11.60;2.60;;;;;;;10.70;100.00;100763.16;5233075;28;20025;-73
2022/11/08 02:22:51;;;;;;;9.23;2.30;;;;;;;10.70;100.00;100750.06;5231415;28;20025;-74
2022/11/08 02:25:22;;;;;;;9.93;2.53;;;;;;;10.74;100.00;100759.38;5232516;28;20064;-73
2022/11/08 02:27:53;;;;;;;8.43;2.20;;;;;;;10.73;100.00;100749.88;5231494;28;20029;-74
2022/11/08 02:30:31;;;;;;;7.27;2.47;;;;;;;10.76;100.00;100755.75;5233272;28;20037;-74
2022/11/08 02:33:17;;;;;;;7.60;2.20;;;;;;;10.79;100.00;100752.09;5232358;28;20056;-73
2022/11/08 02:35:53;;;;;;;8.23;2.33;;;;;;;10.58;100.00;100731.53;5231419;28;20030;-74
2022/11/08 02:38:25;;;;;;;7.30;2.53;;;;;;;10.67;100.00;100732.75;5233145;28;20396;-73
2022/11/08 02:40:57;;;;;;;11.83;3.10;;;;;;;10.67;100.00;100740.59;5232250;28;20034;-74
2022/11/08 02:43:28;;;;;;;8.50;2.07;;;;;;;10.63;100.00;100731.22;5233583;28;20032;-74
2022/11/08 02:45:59;;;;;;;11.33;1.80;;;;;;;10.58;100.00;100726.28;5232031;28;20043;-74
2022/11/08 02:48:31;;;;;;;8.90;2.50;;;;;;;10.63;100.00;100724.22;5233438;28;20030;-74
2022/11/08 02:51:02;;;;;;;8.60;2.37;;;;;;;10.60;100.00;100719.19;5232361;28;20140;-74
2022/11/08 02:53:33;;;;;;;8.20;2.63;;;;;;;10.58;100.00;100710.56;5265154;28;20026;-74
2022/11/08 02:56:05;;;;;;;7.33;2.13;;;;;;;10.63;100.00;100710.28;5231954;28;20029;-74
2022/11/08 02:58:36;;;;;;;9.20;1.93;;;;;;;10.57;100.00;100701.06;5231633;28;20475;-74
2022/11/08 03:01:07;;;;;;;10.97;2.97;;;;;;;10.64;100.00;100704.97;5231253;28;20095;-74
2022/11/08 03:03:39;;;;;;;7.17;1.70;;;;;;;10.57;100.00;100687.97;5232849;28;20053;-73
2022/11/08 03:06:10;;;;;;;15.40;2.57;;;;;;;10.50;100.00;100676.19;5232005;28;20021;-74
2022/11/08 03:08:41;;;;;;;4.47;1.57;;;;;;;10.59;100.00;100688.72;5233131;28;20033;-74
2022/11/08 03:11:12;;;;;;;6.03;1.83;;;;;;;10.58;100.00;100673.91;5230987;28;20159;-73
2022/11/08 03:13:44;;;;;;;8.80;1.80;;;;;;;10.63;100.00;100677.09;5232814;28;20036;-74
2022/11/08 03:16:15;;;;;;;8.80;2.30;;;;;;;10.56;100.00;100667.09;5232629;28;20048;-73
2022/11/08 03:18:46;;;;;;;6.73;2.07;;;;;;;10.49;100.00;100671.88;5236186;28;20025;-74
2022/11/08 03:21:18;;;;;;;7.73;2.03;;;;;;;10.52;100.00;100674.31;5235158;28;20025;-74
2022/11/08 03:23:49;;;;;;;8.63;2.30;;;;;;;10.55;100.00;100671.50;5234492;28;20025;-74
2022/11/08 03:26:20;;;;;;;5.00;1.70;;;;;;;10.53;100.00;100681.22;5235612;28;20033;-74
2022/11/08 03:28:51;;;;;;;6.43;2.37;;;;;;;10.53;100.00;100668.13;5233683;28;20053;-74
2022/11/08 03:31:23;;;;;;;11.63;2.83;;;;;;;10.49;100.00;100656.19;5234850;28;20411;-74
2022/11/08 03:33:54;;;;;;;6.97;2.60;;;;;;;10.37;100.00;100661.19;5235283;28;20583;-73
2022/11/08 03:36:25;;;;;;;7.70;2.53;;;;;;;10.39;100.00;100648.84;5234656;28;20472;-74
2022/11/08 03:38:57;;;;;;;8.67;2.90;;;;;;;10.40;100.00;100654.94;5235827;28;20679;-74
2022/11/08 03:41:28;;;;;;;8.33;2.50;;;;;;;10.36;100.00;100643.81;5235345;28;20025;-74
2022/11/08 03:43:59;;;;;;;8.67;2.20;;;;;;;10.38;100.00;100646.34;5234285;28;20029;-74
2022/11/08 03:46:30;;;;;;;6.63;2.07;;;;;;;10.24;100.00;100615.78;5233880;28;20025;-74
2022/11/08 03:49:02;;;;;;;8.20;2.63;;;;;;;10.36;100.00;100611.56;5235622;28;20026;-74
2022/11/08 03:51:33;;;;;;;8.30;2.93;;;;;;;10.27;100.00;100620.81;5234401;28;20029;-74
2022/11/08 03:54:04;;;;;;;9.03;3.03;;;;;;;10.26;100.00;100617.34;5234020;28;20018;-73
2022/11/08 03:56:35;;;;;;;7.50;2.17;;;;;;;10.29;100.00;100605.88;5234615;28;20037;-73
2022/11/08 03:59:07;;;;;;;12.57;3.17;;;;;;;10.27;100.00;100603.34;5234042;28;20041;-74
2022/11/08 04:01:39;;;;;;;9.33;2.70;;;;;;;10.25;100.00;100606.97;5235283;28;20065;-74
2022/11/08 04:04:10;;;;;;;14.33;3.43;;;;;;;10.20;100.00;100602.03;5234315;28;20084;-74
2022/11/08 04:06:41;;;;;;;14.37;4.27;;;;;;;10.21;100.00;100597.66;5234571;28;20037;-74
2022/11/08 04:09:12;;;;;;;11.63;4.30;;;;;;;10.22;100.00;100588.88;5233427;28;20517;-74
2022/11/08 04:21:17;;;;;;;13.57;4.03;;;;;;;10.15;100.00;100578.78;5235582;28;20049;-73
2022/11/08 04:23:05;;;;;;;11.50;4.17;;;;;;;10.19;100.00;100570.75;5234743;28;20809;-74
2022/11/08 04:25:36;;;;;;;8.70;3.23;;;;;;;10.26;100.00;100574.66;5266060;28;20044;-73
2022/11/08 04:28:08;;;;;;;10.17;3.83;;;;;;;10.24;100.00;100566.06;5233393;28;20025;-74
2022/11/08 04:30:39;;;;;;;6.83;3.23;;;;;;;10.23;100.00;100559.97;5233919;28;20033;-74
2022/11/08 04:33:10;;;;;;;9.60;3.70;;;;;;;10.22;100.00;100573.16;5235608;28;21100;-74
2022/11/08 04:35:42;;;;;;;9.93;3.33;;;;;;;10.14;100.00;100550.91;5236094;28;20033;-74
2022/11/08 04:38:14;;;;;;;9.33;2.40;;;;;;;10.10;100.00;100528.53;5233269;28;20088;-74
2022/11/08 04:40:46;;;;;;;6.57;2.40;;;;;;;10.19;100.00;100541.94;5263984;28;20033;-74
2022/11/08 04:43:18;;;;;;;12.60;2.77;;;;;;;10.19;100.00;100549.81;5234120;28;20029;-74
2022/11/08 04:45:50;;;;;;;13.63;2.97;;;;;;;10.17;100.00;100536.81;5248104;28;20024;-74
2022/11/08 04:48:21;;;;;;;11.03;3.13;;;;;;;10.07;100.00;100526.06;5222404;28;20029;-74
2022/11/08 04:50:52;;;;;;;9.23;2.63;;;;;;;10.05;100.00;100520.94;5233853;28;20051;-74
2022/11/08 04:53:23;;;;;;;8.03;2.80;;;;;;;10.09;100.00;100531.22;5233492;28;20041;-74
2022/11/08 04:56:05;;;;;;;8.77;2.90;;;;;;;10.01;100.00;100523.84;5232394;28;20026;-74
2022/11/08 04:58:44;;;;;;;10.33;2.90;;;;;;;10.05;100.00;100517.50;5222329;28;20124;-74
2022/11/08 05:01:19;;;;;;;8.77;2.80;;;;;;;10.01;100.00;100518.63;5234144;28;20087;-74
2022/11/08 05:03:51;;;;;;;8.18;2.55;;;;;;;10.01;100.00;100521.25;5235221;28;20041;-74
2022/11/08 05:06:25;;;;;;;6.77;2.50;;;;;;;10.00;100.00;100516.94;5235853;28;20032;-73
2022/11/08 05:08:58;;;;;;;7.18;2.60;;;;;;;9.87;100.00;100506.41;5235312;28;20029;-74
2022/11/08 05:11:30;;;;;;;13.17;3.20;;;;;;;9.93;100.00;100508.66;5235813;28;20376;-74
2022/11/08 05:14:01;;;;;;;6.93;1.90;;;;;;;10.00;100.00;100507.31;5234173;28;20038;-74
2022/11/08 05:16:33;;;;;;;4.40;2.30;;;;;;;10.02;100.00;100515.06;5233567;28;20084;-74
2022/11/08 05:19:04;;;;;;;4.93;2.03;;;;;;;10.03;100.00;100514.13;5233822;28;20033;-74
2022/11/08 05:24:25;;;;;;;10.33;2.10;;;;;;;9.87;100.00;100498.56;5232994;28;20034;-74
2022/11/08 05:26:57;;;;;;;6.13;1.93;;;;;;;9.95;100.00;100503.31;5233239;28;20034;-74
2022/11/08 05:29:28;;;;;;;8.43;3.20;;;;;;;9.97;100.00;100497.03;5234092;28;20029;-74
2022/11/08 05:31:59;;;;;;;7.83;2.10;;;;;;;9.82;100.00;100492.78;5233151;28;20076;-74
2022/11/08 05:34:30;;;;;;;6.67;2.27;;;;;;;9.87;100.00;100488.94;5265625;28;20036;-74
2022/11/08 05:37:02;;;;;;;8.47;2.43;;;;;;;9.88;100.00;100485.38;5233651;28;20131;-74
2022/11/08 05:39:33;;;;;;;7.93;2.33;;;;;;;9.85;100.00;100480.34;5232148;28;20030;-73
2022/11/08 05:42:05;;;;;;;6.70;2.20;;;;;;;9.79;100.00;100483.34;5233122;28;20034;-74
2022/11/08 05:44:36;;;;;;;7.03;2.37;;;;;;;9.83;100.00;100487.44;5233712;28;20055;-73
2022/11/08 05:47:07;;;;;;;15.00;2.23;;;;;;;9.75;100.00;100480.09;5232565;28;20213;-74
2022/11/08 05:49:38;;;;;;;8.33;2.17;;;;;;;9.86;100.00;100489.84;5233001;28;20396;-73
2022/11/08 05:52:10;;;;;;;7.77;2.23;;;;;;;9.84;100.00;100486.53;5233141;28;20048;-73
2022/11/08 05:54:41;;;;;;;7.63;2.43;;;;;;;9.80;100.00;100483.25;5230967;28;20038;-74
2022/11/08 05:57:12;;;;;;;10.67;2.80;;;;;;;9.87;100.00;100486.31;5232732;28;20041;-74
2022/11/08 05:59:44;;;;;;;4.90;1.83;;;;;;;9.79;100.00;100476.34;5231505;28;20102;-75
2022/11/08 06:02:16;;;;;;;9.40;2.27;;;;;;;9.76;100.00;100476.53;5225565;28;20077;-75
2022/11/08 06:04:48;;;;;;;7.30;2.23;;;;;;;9.70;100.00;100466.47;5230266;28;20369;-73
2022/11/08 06:07:19;;;;;;;7.70;2.30;;;;;;;9.68;100.00;100471.78;5229513;28;20044;-75
2022/11/08 06:09:50;;;;;;;6.97;1.73;;;;;;;9.66;100.00;100455.34;5231988;28;20065;-74
2022/11/08 06:12:22;;;;;;;7.70;2.20;;;;;;;9.67;100.00;100470.09;5233039;28;20022;-75
2022/11/08 06:14:53;;;;;;;6.20;2.03;;;;;;;9.70;100.00;100469.06;5232733;28;20035;-74
2022/11/08 06:17:24;;;;;;;4.70;2.20;;;;;;;9.74;100.00;100474.97;5232623;28;20041;-74
2022/11/08 06:19:55;;;;;;;8.20;2.47;;;;;;;9.62;100.00;100476.53;5232882;28;20503;-79
2022/11/08 06:22:30;;;;;;;6.30;2.40;;;;;;;9.60;100.00;100473.19;5231206;28;20538;-76
2022/11/08 06:25:01;;;;;;;;;;;;;;;9.76;100.00;100478.28;5231554;28;20609;-76
2022/11/08 06:27:32;;;;;;;6.10;2.00;;;;;;;9.72;100.00;100475.03;5231275;28;19967;-74
2022/11/08 06:30:04;;;;;;;8.37;2.93;;;;;;;9.64;100.00;100472.91;5231014;28;20030;-74
2022/11/08 06:32:36;;;;;;;6.83;2.30;;;;;;;9.68;100.00;100477.03;5210943;28;20064;-74
2022/11/08 06:35:07;;;;;;;6.70;2.20;;;;;;;9.60;100.00;100475.81;5227589;28;20037;-77
2022/11/08 06:37:39;;;;;;;10.90;3.37;;;;;;;9.55;100.00;100470.84;5224898;28;20030;-77
2022/11/08 06:40:10;;;;;;;6.30;2.70;;;;;;;9.62;100.00;100480.00;5213012;28;20092;-76
2022/11/08 06:42:42;;;;;;;9.13;2.80;;;;;;;9.55;100.00;100466.47;5225251;28;20484;-75
2022/11/08 06:45:13;;;;;;;8.57;2.70;;;;;;;9.59;100.00;100471.50;5231349;28;20029;-77
2022/11/08 06:47:44;;;;;;;7.67;2.63;;;;;;;9.62;100.00;100468.69;5230364;28;20129;-75
2022/11/08 06:50:16;;;;;;;11.03;3.07;;;;;;;9.44;100.00;100459.28;5232317;28;20112;-77
2022/11/08 06:52:48;;;;;;;9.13;2.03;;;;;;;9.67;100.00;100475.31;5233934;28;20033;-76
2022/11/08 06:55:19;;;;;;;6.70;2.27;;;;;;;9.64;100.00;100485.97;5235386;28;20037;-76
2022/11/08 06:57:51;;;;;;;10.57;2.97;;;;;;;9.63;100.00;100479.09;5236347;28;20030;-76
2022/11/08 07:00:23;;;;;;;5.43;2.30;;;;;;;9.65;100.00;100479.81;5231447;28;20038;-76
2022/11/08 07:02:56;;;;;;;10.53;2.60;;;;;;;9.61;100.00;100486.19;5235918;28;20045;-76
2022/11/08 07:05:29;;;;;;;9.37;3.13;;;;;;;9.64;100.00;100485.97;5235590;28;20021;-76
2022/11/08 07:08:01;;;;;;;8.17;2.80;;;;;;;9.65;100.00;100489.44;5231966;28;20830;-77
2022/11/08 07:10:32;;;;;;;9.10;2.77;;;;;;;9.59;100.00;100501.13;5221158;28;20136;-75
2022/11/08 07:13:06;;;;;;;7.83;2.53;;;;;;;9.61;100.00;100496.63;5234926;28;20033;-76
2022/11/08 07:15:38;;;;;;;8.52;2.63;;;;;;;9.65;100.00;100507.75;5228731;28;20033;-76
2022/11/08 07:18:11;;;;;;;6.43;2.53;;;;;;;9.65;100.00;100498.09;5229881;28;20068;-76
2022/11/08 07:20:43;;;;;;;8.43;2.50;;;;;;;9.69;100.00;100498.75;5232984;28;20040;-77
2022/11/08 07:23:14;;;;;;;10.77;3.57;;;;;;;9.78;100.00;100497.34;5233282;28;20029;-77
2022/11/08 07:25:45;;;;;;;7.67;2.17;;;;;;;9.74;100.00;100490.66;5234734;28;20526;-76
2022/11/08 07:28:18;;;;;;;6.33;2.20;;;;;;;9.77;100.00;100482.59;5234768;28;20037;-77
2022/11/08 07:30:49;;;;;;;5.80;2.67;;;;;;;9.81;100.00;100486.69;5232924;28;20737;-76
2022/11/08 07:33:20;;;;;;;6.60;2.17;;;;;;;9.85;100.00;100488.19;5235305;28;20079;-77
2022/11/08 07:35:52;;;;;;;5.70;2.00;;;;;;;9.91;100.00;100490.41;5234184;28;20032;-77
2022/11/08 07:38:25;;;;;;;8.30;2.40;;;;;;;9.82;100.00;100477.94;5234973;28;20036;-76
2022/11/08 07:40:57;;;;;;;5.77;1.87;;;;;;;9.94;100.00;100481.53;5264044;28;20060;-77
2022/11/08 07:43:29;;;;;;;4.37;2.27;;;;;;;9.93;100.00;100490.34;5219010;28;20037;-77
2022/11/08 07:46:01;;;;;;;9.93;2.30;;;;;;;9.93;100.00;100472.84;5231667;28;20037;-76
2022/11/08 07:48:32;;;;;;;5.67;2.50;;;;;;;9.98;100.00;100483.03;5256889;28;20041;-76
2022/11/08 07:51:03;;;;;;;7.13;2.70;;;;;;;10.11;100.00;100483.09;5231187;28;20030;-77
2022/11/08 07:53:35;;;;;;;3.80;1.80;;;;;;;10.09;100.00;100476.28;5232895;28;20570;-77
2022/11/08 07:56:06;;;;;;;7.10;2.13;;;;;;;10.16;100.00;100474.94;5232586;28;20108;-76
2022/11/08 07:58:37;;;;;;;3.93;1.93;;;;;;;10.24;100.00;100482.31;5234796;28;20680;-77
2022/11/08 08:01:09;;;;;;;6.87;1.90;;;;;;;10.33;100.00;100468.63;5232098;28;20064;-76
2022/11/08 08:03:40;;;;;;;6.77;1.80;;;;;;;10.39;100.00;100481.31;5230990;28;20140;-76
2022/11/08 08:06:11;;;;;;;3.43;2.00;;;;;;;10.56;100.00;100471.53;5233686;28;20037;-75
2022/11/08 08:08:42;;;;;;;4.47;1.70;;;;;;;10.57;100.00;100461.91;5233016;28;20021;-76
2022/11/08 08:11:14;;;;;;;4.73;1.73;;;;;;;10.69;100.00;100468.94;5264908;28;20029;-75
2022/11/08 08:13:45;;;;;;;3.67;1.70;;;;;;;10.80;100.00;100478.72;5232216;28;20124;-76
2022/11/08 08:16:16;;;;;;;4.63;1.57;;;;;;;10.79;100.00;100461.31;5233204;28;20030;-74
2022/11/08 08:18:48;;;;;;;7.93;2.67;;;;;;;10.88;100.00;100462.47;5230135;28;20036;-76
2022/11/08 08:21:20;;;;;;;4.27;1.40;;;;;;;10.91;100.00;100479.78;5232774;28;20061;-76
2022/11/08 08:23:51;;;;;;;3.33;1.70;;;;;;;10.98;100.00;100466.16;5232255;28;20109;-76
2022/11/08 08:26:23;;;;;;;4.80;1.60;;;;;;;11.10;100.00;100490.69;5230021;28;20037;-76
2022/11/08 08:28:54;;;;;;;3.77;1.47;;;;;;;11.12;100.00;100478.31;5230871;28;20040;-76
2022/11/08 08:31:25;;;;;;;4.13;1.80;;;;;;;11.12;100.00;100478.31;5230407;28;20029;-78
2022/11/08 08:33:56;;;;;;;4.03;1.70;;;;;;;11.25;100.00;100514.19;5244381;28;20082;-79
2022/11/08 08:36:28;;;;;;;4.60;2.20;;;;;;;11.23;100.00;100497.72;5217637;28;20037;-78
2022/11/08 08:38:59;;;;;;;5.90;1.60;;;;;;;11.27;100.00;100491.31;5213089;28;20033;-77
2022/11/08 08:41:30;;;;;;;6.10;2.03;;;;;;;11.38;100.00;100496.66;5228047;28;20056;-78
2022/11/08 08:44:02;;;;;;;6.40;1.70;;;;;;;11.47;100.00;100486.47;5244132;28;20053;-76
2022/11/08 08:46:33;;;;;;;3.57;1.83;;;;;;;11.50;100.00;100475.78;5231470;28;20117;-75
2022/11/08 08:49:04;;;;;;;4.83;1.67;;;;;;;11.56;100.00;100479.75;5233043;28;20040;-76
2022/11/08 08:51:35;;;;;;;2.60;1.50;;;;;;;11.50;100.00;100452.19;5234080;28;20639;-76
2022/11/08 08:54:07;;;;;;;3.17;1.60;;;;;;;11.72;100.00;100469.03;5232914;28;20108;-75
2022/11/08 08:56:38;;;;;;;3.73;1.40;;;;;;;11.70;100.00;100466.50;5233367;28;20021;-76
2022/11/08 08:59:09;;;;;;;3.97;1.80;;;;;;;11.80;100.00;100468.50;5233442;28;20021;-75
2022/11/08 09:01:41;;;;;;;3.20;1.50;;;;;;;11.90;100.00;100471.28;5234134;28;20025;-76
2022/11/08 09:04:12;;;;;;;5.37;1.80;;;;;;;11.90;100.00;100466.03;5233664;28;20108;-75
2022/11/08 09:06:43;;;;;;;5.13;1.50;;;;;;;12.05;100.00;100464.94;5234709;28;20032;-75
2022/11/08 09:09:14;;;;;;;6.10;1.70;;;;;;;12.04;100.00;100447.53;5232913;28;20034;-74
2022/11/08 09:11:46;;;;;;;2.40;1.20;;;;;;;12.18;100.00;100449.13;5231050;28;20337;-75
2022/11/08 09:14:17;;;;;;;3.77;1.40;;;;;;;12.19;100.00;100450.00;5233477;28;20424;-74
2022/11/08 09:16:48;;;;;;;4.37;1.53;;;;;;;12.28;100.00;100464.22;5232663;28;20044;-76
2022/11/08 09:19:19;;;;;;;3.13;1.53;;;;;;;12.31;100.00;100474.50;5232569;28;20045;-76
2022/11/08 09:21:51;;;;;;;5.53;1.90;;;;;;;12.35;100.00;100473.34;5234287;28;20026;-76
2022/11/08 09:24:22;;;;;;;4.33;1.60;;;;;;;12.37;100.00;100457.47;5233056;28;20021;-75
2022/11/08 09:26:53;;;;;;;5.13;1.90;;;;;;;12.43;100.00;100447.34;5232317;28;20099;-76
2022/11/08 09:29:25;;;;;;;5.70;1.70;;;;;;;12.42;100.00;100440.44;5234393;28;20500;-77
2022/11/08 09:31:56;;;;;;;5.33;1.20;;;;;;;12.40;100.00;100446.72;5232213;28;20033;-75
2022/11/08 09:34:27;;;;;;;7.17;1.67;;;;;;;12.42;100.00;100450.94;5234081;28;20029;-75
2022/11/08 09:36:59;;;;;;;5.37;1.70;;;;;;;12.37;100.00;100447.81;5234137;28;20504;-75
2022/11/08 09:39:30;;;;;;;5.40;1.90;;;;;;;12.38;100.00;100443.38;5232881;28;20026;-76
2022/11/08 09:42:29;;;;;;;9.43;2.30;;;;;;;12.52;100.00;100466.84;5232134;28;20057;-77
2022/11/08 09:45:17;;;;;;;3.93;1.80;;;;;;;12.53;100.00;100449.28;5233260;28;20541;-75
2022/11/08 09:47:54;;;;;;;3.43;1.60;;;;;;;12.63;100.00;100462.56;5232178;28;20037;-74
2022/11/08 09:50:42;;;;;;;7.13;1.80;;;;;;;12.74;100.00;100453.88;5233603;28;20029;-75
2022/11/08 09:53:38;;;;;;;4.00;1.73;;;;;;;12.80;100.00;100453.41;5233005;28;20109;-75
2022/11/08 09:56:28;;;;;;;3.17;2.10;;;;;;;12.94;100.00;100471.59;5227476;28;20048;-78
2022/11/08 09:59:24;;;;;;;7.60;2.40;;;;;;;13.08;100.00;100472.34;5233518;28;20037;-76
2022/11/08 10:01:55;;;;;;;3.47;1.70;;;;;;;13.16;100.00;100464.69;5231329;28;20076;-78
2022/11/08 10:04:30;;;;;;;6.27;2.20;;;;;;;13.32;100.00;100474.03;5232611;28;20071;-78
2022/11/08 10:08:03;;;;;;;6.03;1.90;;;;;;;13.43;100.00;100468.78;5233044;28;20025;-77
2022/11/08 10:11:12;;;;;;;7.87;1.93;;;;;;;13.59;100.00;100472.03;5168940;28;20059;-77
2022/11/08 10:14:28;;;;;;;4.27;1.70;;;;;;;13.65;100.00;100469.75;5153003;28;20069;-75
2022/11/08 10:17:38;;;;;;;5.57;2.17;;;;;;;13.79;100.00;100466.00;5204647;28;20204;-76
2022/11/08 10:20:43;;;;;;;5.20;1.87;;;;;;;13.80;100.00;100485.28;5231363;28;20039;-76
2022/11/08 10:23:21;;;;;;;7.70;1.80;;;;;;;13.83;100.00;100487.66;5231128;28;20041;-76
2022/11/08 10:26:03;;;;;;;9.53;2.13;;;;;;;13.85;100.00;100475.22;5229032;28;20021;-75
2022/11/08 10:28:48;;;;;;;4.40;1.87;;;;;;;13.90;100.00;100482.75;5230184;28;20439;-76
2022/11/08 10:31:20;;;;;;;8.67;1.73;;;;;;;13.75;100.00;100483.00;5235994;28;20033;-75
2022/11/08 10:33:57;;;;;;;5.80;2.00;;;;;;;13.80;100.00;100487.91;5236477;28;20072;-74
2022/11/08 10:36:40;;;;;;;6.37;2.30;;;;;;;13.78;100.00;100490.66;5236762;28;20037;-75
2022/11/08 10:39:21;;;;;;;5.53;1.57;;;;;;;13.84;100.00;100493.78;5235383;28;20120;-76
2022/11/08 10:42:04;;;;;;;3.47;1.50;;;;;;;13.79;100.00;100497.59;5236337;28;20064;-76
2022/11/08 10:44:35;;;;;;;5.27;1.80;;;;;;;13.73;100.00;100498.09;5235637;28;20022;-76
2022/11/08 10:47:19;;;;;;;8.87;2.33;;;;;;;13.75;100.00;100495.34;5236995;28;20033;-75
2022/11/08 10:49:52;;;;;;;11.07;1.98;;;;;;;13.85;100.00;100487.53;5237080;28;20025;-76
2022/11/08 10:52:33;;;;;;;6.73;2.20;;;;;;;13.85;100.00;100491.00;5235301;28;20071;-76
2022/11/08 10:55:06;;;;;;;11.20;2.03;;;;;;;13.87;100.00;100493.53;5235809;28;20053;-76
2022/11/08 10:57:42;;;;;;;8.07;2.03;;;;;;;13.86;100.00;100484.78;5237201;28;20018;-76
2022/11/08 11:00:28;;;;;;;8.03;2.10;;;;;;;13.92;100.00;100478.19;5235526;28;20037;-77
2022/11/08 11:03:22;;;;;;;7.43;1.80;;;;;;;13.91;100.00;100477.34;5236544;28;20400;-76
2022/11/08 11:06:02;;;;;;;4.20;1.80;;;;;;;13.95;100.00;100480.56;5236198;28;20056;-77
2022/11/08 11:08:48;;;;;;;4.43;2.53;;;;;;;14.00;100.00;100467.88;5235242;28;20425;-75
2022/11/08 11:11:30;;;;;;;8.77;2.33;;;;;;;14.01;100.00;100474.00;5237203;28;20187;-76
2022/11/08 11:14:06;;;;;;;4.70;2.30;;;;;;;14.02;100.00;100460.69;5236174;28;20112;-76
2022/11/08 11:16:50;;;;;;;4.20;1.63;;;;;;;14.03;100.00;100441.28;5236825;28;20132;-74
2022/11/08 11:19:24;;;;;;;2.83;1.42;;;;;;;14.04;100.00;100447.41;5249487;28;20108;-76
2022/11/08 11:22:04;;;;;;;4.15;2.50;;;;;;;14.07;100.00;100454.22;5235894;28;20401;-76
2022/11/08 11:24:46;;;;;;;7.33;1.63;;;;;;;14.12;100.00;100442.34;5235780;28;20559;-75
2022/11/08 11:27:22;;;;;;;4.33;1.27;;;;;;;14.06;100.00;100436.75;5234934;28;20104;-76
2022/11/08 11:30:14;;;;;;;3.93;1.70;;;;;;;14.20;100.00;100440.88;5232038;28;20033;-78
2022/11/08 11:33:13;;;;;;;7.07;2.10;;;;;;;14.18;100.00;100417.31;5235611;28;20366;-76
2022/11/08 11:35:50;;;;;;;4.03;1.50;;;;;;;14.23;100.00;100414.28;5235375;28;20502;-75
2022/11/08 11:38:49;;;;;;;4.03;1.70;;;;;;;14.28;100.00;100427.91;5231833;28;20036;-75
2022/11/08 11:41:26;;;;;;;9.10;2.57;;;;;;;14.26;100.00;100445.66;5236240;28;20046;-76
2022/11/08 11:44:19;;;;;;;4.93;2.03;;;;;;;14.40;100.00;100437.44;5235465;28;20460;-75
2022/11/08 11:47:10;;;;;;;7.27;1.70;;;;;;;14.37;100.00;100423.69;5236021;28;20037;-75
2022/11/08 11:49:44;;;;;;;6.10;1.90;;;;;;;14.33;100.00;100425.72;5236358;28;20034;-75
2022/11/08 11:52:17;;;;;;;6.93;2.43;;;;;;;14.32;100.00;100425.88;5235533;28;20022;-76
2022/11/08 11:54:49;;;;;;;4.93;1.75;;;;;;;14.36;100.00;100403.59;5234457;28;20055;-76
2022/11/08 11:57:57;;;;;;;7.47;1.73;;;;;;;14.45;100.00;100418.59;5235873;28;20026;-76
2022/11/08 12:00:29;;;;;;;5.50;2.47;;;;;;;14.38;100.00;100415.66;5234443;28;20291;-75
2022/11/08 12:03:24;;;;;;;4.37;2.03;;;;;;;14.45;100.00;100413.34;5234883;28;20084;-74
2022/11/08 12:06:15;;;;;;;4.57;1.90;;;;;;;14.37;100.00;100410.50;5266863;28;20073;-75
2022/11/08 12:09:04;;;;;;;6.23;2.10;;;;;;;14.34;100.00;100403.72;5227365;28;20044;-79
2022/11/08 12:11:45;;;;;;;3.83;1.87;;;;;;;14.30;100.00;100410.19;5228253;28;20041;-79